Time;durP1;ratioP1;P1;durP2;ratioP2;P2;SDS_P1;SDS_P2;PMS_P1;PMS_P2;Temp;Humidity;BMP_temperature;BMP_pressure;BME280_temperature;BME280_humidity;BME280_pressure;Samples;Min_cycle;Max_cycle;Signal;HPM_P1;HPM_P2
2023/01/16 00:01:52;;;;;;;28.50;6.60;;;;;;;-3.26;100.00;100726.17;104886;1259;75577;-60
2023/01/16 00:04:20;;;;;;;26.10;7.40;;;;;;;-3.26;100.00;100727.86;105124;1257;61797;-60
2023/01/16 00:06:47;;;;;;;25.60;6.90;;;;;;;-3.26;100.00;100724.98;105237;1254;62837;-59
2023/01/16 00:09:14;;;;;;;27.10;7.10;;;;;;;-3.25;100.00;100723.23;105316;1258;76352;-59
2023/01/16 00:11:41;;;;;;;28.80;7.40;;;;;;;-3.22;100.00;100725.12;105206;1254;69810;-61
2023/01/16 00:14:08;;;;;;;26.10;6.10;;;;;;;-3.20;100.00;100724.48;105212;1257;75350;-60
2023/01/16 00:16:36;;;;;;;30.60;8.10;;;;;;;-3.18;100.00;100719.13;105129;1259;60905;-61
2023/01/16 00:19:03;;;;;;;37.00;8.00;;;;;;;-3.16;100.00;100717.84;105114;1259;61603;-60
2023/01/16 00:21:30;;;;;;;39.20;8.50;;;;;;;-3.15;100.00;100718.81;105461;1257;76030;-63
2023/01/16 00:23:58;;;;;;;36.00;9.10;;;;;;;-3.13;100.00;100719.04;104879;1259;70013;-61
2023/01/16 00:26:26;;;;;;;28.80;8.00;;;;;;;-3.10;100.00;100716.32;105191;1259;75134;-60
2023/01/16 00:28:53;;;;;;;25.90;7.20;;;;;;;-3.08;100.00;100714.70;105083;1262;61992;-61
2023/01/16 00:31:23;;;;;;;22.70;6.50;;;;;;;-3.08;100.00;100713.64;105747;1257;62872;-63
2023/01/16 00:33:51;;;;;;;40.10;8.70;;;;;;;-3.06;100.00;100715.76;104821;1259;74891;-61
2023/01/16 00:36:18;;;;;;;38.90;8.80;;;;;;;-3.06;100.00;100715.77;105148;1259;69201;-61
2023/01/16 00:38:46;;;;;;;39.40;9.20;;;;;;;-3.07;100.00;100714.27;105149;1256;74128;-61
2023/01/16 00:41:13;;;;;;;33.50;7.50;;;;;;;-3.05;100.00;100716.05;105698;1257;62058;-61
2023/01/16 00:43:40;;;;;;;30.00;8.10;;;;;;;-3.03;100.00;100715.25;105239;1259;62508;-63
2023/01/16 00:46:07;;;;;;;34.80;9.60;;;;;;;-3.00;100.00;100707.27;105112;1259;76364;-60
2023/01/16 00:48:35;;;;;;;34.50;7.00;;;;;;;-2.97;100.00;100707.92;105188;1257;69648;-61
2023/01/16 00:51:02;;;;;;;26.30;7.20;;;;;;;-2.96;100.00;100714.84;104919;1257;75260;-60
2023/01/16 00:53:29;;;;;;;41.20;9.70;;;;;;;-2.97;100.00;100715.02;105606;1258;60400;-61
2023/01/16 00:55:56;;;;;;;41.60;7.40;;;;;;;-2.99;100.00;100715.87;104875;1256;61982;-62
2023/01/16 00:58:23;;;;;;;27.40;7.50;;;;;;;-3.02;100.00;100712.13;104946;1259;75059;-60
2023/01/16 01:00:50;;;;;;;36.90;8.40;;;;;;;-3.03;100.00;100708.27;105144;1259;69789;-61
2023/01/16 01:03:18;;;;;;;36.40;7.10;;;;;;;-3.03;100.00;100700.80;105274;1259;75232;-61
2023/01/16 01:05:45;;;;;;;24.70;7.70;;;;;;;-3.04;100.00;100701.31;105476;1259;60902;-61
2023/01/16 01:08:12;;;;;;;36.50;7.90;;;;;;;-3.05;100.00;100697.19;105150;1254;61673;-60
2023/01/16 01:10:39;;;;;;;29.60;8.20;;;;;;;-3.07;100.00;100696.25;104924;1255;76604;-61
2023/01/16 01:13:07;;;;;;;36.90;8.60;;;;;;;-3.08;100.00;100696.79;105347;1259;68297;-62
2023/01/16 01:15:34;;;;;;;33.90;8.70;;;;;;;-3.07;100.00;100697.42;104903;1254;75252;-61
2023/01/16 01:18:01;;;;;;;29.60;8.90;;;;;;;-3.08;100.00;100697.52;105212;1259;62169;-61
2023/01/16 01:20:28;;;;;;;32.00;9.50;;;;;;;-3.10;100.00;100696.44;105095;1259;62862;-61
2023/01/16 01:22:55;;;;;;;34.90;10.50;;;;;;;-3.11;100.00;100691.88;104952;1255;75329;-60
2023/01/16 01:25:23;;;;;;;40.80;10.70;;;;;;;-3.11;100.00;100691.37;105127;1259;69559;-61
2023/01/16 01:27:50;;;;;;;30.30;7.90;;;;;;;-3.08;100.00;100688.84;105409;1259;75240;-62
2023/01/16 01:30:17;;;;;;;31.70;9.00;;;;;;;-3.08;100.00;100687.61;105135;1259;60954;-60
2023/01/16 01:32:44;;;;;;;30.90;8.80;;;;;;;-3.06;100.00;100689.91;104961;1254;61988;-60
2023/01/16 01:35:12;;;;;;;35.00;9.10;;;;;;;-3.05;100.00;100684.89;105390;1257;75337;-62
2023/01/16 01:37:39;;;;;;;49.40;9.70;;;;;;;-3.03;100.00;100684.96;104917;1259;68757;-61
2023/01/16 01:40:07;;;;;;;39.00;9.00;;;;;;;-3.00;100.00;100681.09;105393;1257;74859;-62
2023/01/16 01:42:51;;;;;;;33.30;8.70;;;;;;;-2.96;100.00;100683.90;105154;1257;60955;-60
2023/01/16 01:45:27;;;;;;;42.60;10.70;;;;;;;-2.92;100.00;100684.01;104950;1259;61305;-61
2023/01/16 01:47:55;;;;;;;36.90;10.50;;;;;;;-2.89;100.00;100678.40;105026;1259;76237;-63
2023/01/16 01:50:43;;;;;;;28.90;8.10;;;;;;;-2.85;100.00;100679.88;105174;1259;68443;-62
2023/01/16 01:53:20;;;;;;;39.20;11.40;;;;;;;-2.81;100.00;100677.97;105005;1257;75217;-63
2023/01/16 01:55:47;;;;;;;35.10;9.90;;;;;;;-2.80;100.00;100674.83;104930;1262;62098;-60
2023/01/16 01:58:20;;;;;;;27.50;8.70;;;;;;;-2.77;100.00;100675.35;105347;1257;62415;-63
2023/01/16 02:00:52;;;;;;;49.40;10.10;;;;;;;-2.76;100.00;100675.44;105079;1259;75638;-61
2023/01/16 02:03:25;;;;;;;29.60;7.80;;;;;;;-2.72;100.00;100674.35;105481;1259;67490;-64
2023/01/16 02:05:54;;;;;;;35.60;10.20;;;;;;;-2.71;100.00;100679.23;104928;1261;75504;-60
2023/01/16 02:08:23;;;;;;;31.10;10.00;;;;;;;-2.71;100.00;100677.88;105157;1261;60965;-59
2023/01/16 02:10:56;;;;;;;24.90;7.30;;;;;;;-2.73;100.00;100675.94;105078;1262;61913;-58
2023/01/16 02:13:23;;;;;;;36.70;8.30;;;;;;;-2.78;100.00;100671.80;105161;1259;76194;-61
2023/01/16 02:21:34;;;;;;;29.70;7.20;;;;;;;-2.88;100.00;100668.16;104886;1259;62235;-60
2023/01/16 02:24:33;;;;;;;36.20;9.00;;;;;;;-2.92;100.00;100663.77;104939;1259;61799;-60
2023/01/16 02:27:09;;;;;;;35.70;9.40;;;;;;;-2.96;100.00;100666.06;105127;1259;76038;-60
2023/01/16 02:29:56;;;;;;;30.50;7.90;;;;;;;-2.98;100.00;100664.64;105043;1260;68145;-60
2023/01/16 02:32:50;;;;;;;26.90;7.60;;;;;;;-3.00;100.00;100663.53;104840;1257;75330;-60
2023/01/16 02:35:25;;;;;;;25.30;7.10;;;;;;;-3.00;100.00;100667.61;105684;1256;60853;-62
2023/01/16 02:38:15;;;;;;;34.60;8.50;;;;;;;-2.99;100.00;100665.01;104794;1255;62582;-60
2023/01/16 02:40:51;;;;;;;30.10;8.70;;;;;;;-2.98;100.00;100658.85;105107;1259;75056;-61
2023/01/16 02:43:35;;;;;;;32.00;8.80;;;;;;;-2.98;100.00;100658.36;105093;1259;68494;-60
2023/01/16 02:46:29;;;;;;;34.80;7.90;;;;;;;-2.98;100.00;100658.14;105141;1259;74057;-60
2023/01/16 02:49:07;;;;;;;31.50;7.50;;;;;;;-2.95;100.00;100660.88;104888;1257;60428;-60
2023/01/16 02:51:37;;;;;;;35.20;10.20;;;;;;;-2.91;100.00;100661.52;104864;1257;61215;-60
2023/01/16 02:54:13;;;;;;;37.10;9.60;;;;;;;-2.86;100.00;100663.30;104912;1257;75207;-61
2023/01/16 02:56:45;;;;;;;33.10;9.10;;;;;;;-2.82;100.00;100663.03;104885;1257;69583;-61
2023/01/16 02:59:14;;;;;;;24.00;7.80;;;;;;;-2.76;100.00;100658.59;105164;1255;75220;-63
2023/01/16 03:01:41;;;;;;;29.00;8.00;;;;;;;-2.70;100.00;100651.80;105214;1255;61767;-60
2023/01/16 03:04:47;;;;;;;20.70;7.60;;;;;;;-2.66;100.00;100651.58;105747;1259;62526;-62
2023/01/16 03:07:46;;;;;;;25.60;8.20;;;;;;;-2.66;100.00;100654.48;105342;1255;76347;-63
2023/01/16 03:10:28;;;;;;;22.10;7.70;;;;;;;-2.66;100.00;100651.95;105060;1261;68281;-60
2023/01/16 03:12:58;;;;;;;34.70;8.30;;;;;;;-2.65;100.00;100650.86;104878;1263;75023;-62
2023/01/16 03:15:44;;;;;;;29.30;8.10;;;;;;;-2.66;100.00;100651.24;104872;1259;60979;-60
2023/01/16 03:18:30;;;;;;;27.40;8.70;;;;;;;-2.65;100.00;100653.08;105169;1255;61231;-60
2023/01/16 03:21:10;;;;;;;37.30;9.50;;;;;;;-2.64;100.00;100653.16;105563;1259;75057;-59
2023/01/16 03:24:00;;;;;;;30.80;8.00;;;;;;;-2.65;100.00;100652.20;105482;1257;69728;-59
2023/01/16 03:26:36;;;;;;;29.60;8.40;;;;;;;-2.64;100.00;100658.26;105474;1260;74551;-60
2023/01/16 03:29:18;;;;;;;34.60;8.70;;;;;;;-2.60;100.00;100657.38;105590;1260;62111;-62
2023/01/16 03:32:11;;;;;;;29.70;8.60;;;;;;;-2.57;100.00;100656.86;105474;1259;61441;-62
2023/01/16 03:34:48;;;;;;;32.10;10.20;;;;;;;-2.56;100.00;100658.53;105426;1259;76291;-60
2023/01/16 03:37:22;;;;;;;22.40;8.40;;;;;;;-2.54;100.00;100657.00;105559;1259;69531;-63
2023/01/16 03:39:52;;;;;;;26.70;7.90;;;;;;;-2.51;100.00;100658.73;105315;1262;75221;-59
2023/01/16 03:42:52;;;;;;;24.00;6.70;;;;;;;-2.49;100.00;100655.66;105389;1263;60945;-60
2023/01/16 03:45:23;;;;;;;28.50;7.80;;;;;;;-2.47;100.00;100652.85;105082;1263;63084;-59
2023/01/16 03:48:00;;;;;;;23.20;8.30;;;;;;;-2.46;100.00;100651.77;105278;1262;76132;-60
2023/01/16 03:50:27;;;;;;;34.00;9.00;;;;;;;-2.44;100.00;100654.39;105144;1263;67951;-64
2023/01/16 03:52:56;;;;;;;38.00;9.10;;;;;;;-2.43;100.00;100655.85;105415;1259;76142;-62
2023/01/16 03:55:30;;;;;;;26.60;8.10;;;;;;;-2.41;100.00;100655.76;105171;1257;62641;-61
2023/01/16 03:58:04;;;;;;;29.00;8.90;;;;;;;-2.40;100.00;100657.88;105351;1257;61692;-63
2023/01/16 04:00:47;;;;;;;37.90;9.20;;;;;;;-2.36;100.00;100654.27;105565;1260;76602;-63
2023/01/16 04:03:24;;;;;;;24.10;8.70;;;;;;;-2.33;100.00;100654.39;105308;1261;69319;-64
2023/01/16 04:05:58;;;;;;;28.80;9.30;;;;;;;-2.31;100.00;100656.01;105154;1257;74080;-64
2023/01/16 04:08:29;;;;;;;32.40;10.40;;;;;;;-2.30;100.00;100651.01;105080;1258;63761;-63
2023/01/16 04:10:56;;;;;;;36.10;10.70;;;;;;;-2.29;100.00;100647.67;105031;1257;62806;-60
2023/01/16 04:13:28;;;;;;;27.60;9.50;;;;;;;-2.27;100.00;100647.91;104990;1262;76618;-60
2023/01/16 04:15:56;;;;;;;36.90;10.60;;;;;;;-2.24;100.00;100647.60;105013;1261;68118;-60
2023/01/16 04:18:27;;;;;;;41.20;10.80;;;;;;;-2.25;100.00;100646.77;105115;1261;75530;-60
2023/01/16 04:20:54;;;;;;;37.10;10.70;;;;;;;-2.24;100.00;100649.65;105203;1255;61108;-60
2023/01/16 04:23:21;;;;;;;39.80;11.80;;;;;;;-2.24;100.00;100654.88;105065;1260;61430;-60
2023/01/16 04:25:48;;;;;;;34.30;10.70;;;;;;;-2.23;100.00;100653.65;105342;1257;75123;-63
2023/01/16 04:28:15;;;;;;;28.40;8.70;;;;;;;-2.23;100.00;100650.41;105100;1260;68851;-63
2023/01/16 04:30:42;;;;;;;33.90;9.90;;;;;;;-2.23;100.00;100649.58;105048;1270;75314;-60
2023/01/16 04:33:10;;;;;;;32.70;9.80;;;;;;;-2.24;100.00;100649.59;105021;1261;62155;-60
2023/01/16 04:35:37;;;;;;;27.00;9.40;;;;;;;-2.25;100.00;100651.89;105032;1260;61932;-63
2023/01/16 04:38:04;;;;;;;32.60;9.40;;;;;;;-2.28;100.00;100652.56;105335;1262;76754;-63
2023/01/16 04:40:31;;;;;;;40.00;11.20;;;;;;;-2.30;100.00;100656.45;104892;1260;68843;-60
2023/01/16 04:42:58;;;;;;;38.90;11.80;;;;;;;-2.32;100.00;100654.16;105087;1270;75090;-60
2023/01/16 04:45:25;;;;;;;42.40;13.20;;;;;;;-2.32;100.00;100653.19;104916;1260;60795;-61
2023/01/16 04:47:53;;;;;;;44.10;12.50;;;;;;;-2.33;100.00;100653.06;105146;1260;61758;-60
2023/01/16 04:50:20;;;;;;;46.70;13.30;;;;;;;-2.33;100.00;100652.20;105130;1258;75243;-61
2023/01/16 04:52:47;;;;;;;46.30;13.40;;;;;;;-2.33;100.00;100652.20;105111;1257;67682;-60
2023/01/16 04:55:15;;;;;;;40.20;11.80;;;;;;;-2.33;100.00;100653.02;105097;1262;73842;-60
2023/01/16 04:57:42;;;;;;;52.50;12.80;;;;;;;-2.33;100.00;100656.43;105325;1262;61318;-62
2023/01/16 05:00:10;;;;;;;69.10;14.30;;;;;;;-2.33;100.00;100655.59;105148;1257;63207;-62
2023/01/16 05:02:37;;;;;;;47.40;11.60;;;;;;;-2.32;100.00;100654.52;105578;1261;76369;-63
2023/01/16 05:05:05;;;;;;;50.70;12.30;;;;;;;-2.31;100.00;100647.66;105053;1261;68260;-61
2023/01/16 05:07:32;;;;;;;45.80;11.40;;;;;;;-2.29;100.00;100647.68;105125;1262;74009;-60
2023/01/16 05:09:59;;;;;;;45.30;13.90;;;;;;;-2.27;100.00;100648.30;105095;1263;60844;-63
2023/01/16 05:12:26;;;;;;;33.60;12.00;;;;;;;-2.26;100.00;100649.55;104792;1257;62654;-60
2023/01/16 05:14:54;;;;;;;45.10;12.90;;;;;;;-2.26;100.00;100647.70;105306;1256;76468;-61
2023/01/16 05:17:24;;;;;;;49.00;12.50;;;;;;;-2.27;100.00;100649.98;105204;1259;70569;-60
2023/01/16 05:19:51;;;;;;;44.80;13.20;;;;;;;-2.26;100.00;100652.80;105368;1257;73892;-62
2023/01/16 05:22:19;;;;;;;53.90;13.70;;;;;;;-2.25;100.00;100653.57;104873;1260;60635;-60
2023/01/16 05:24:46;;;;;;;47.10;12.10;;;;;;;-2.24;100.00;100651.52;105024;1260;62899;-60
2023/01/16 05:27:13;;;;;;;43.70;11.80;;;;;;;-2.23;100.00;100651.95;105091;1258;74963;-61
2023/01/16 05:29:40;;;;;;;47.60;14.70;;;;;;;-2.21;100.00;100657.63;105141;1257;69610;-61
2023/01/16 05:32:07;;;;;;;54.10;15.60;;;;;;;-2.22;100.00;100656.95;105009;1262;75035;-62
2023/01/16 05:34:34;;;;;;;48.20;15.60;;;;;;;-2.22;100.00;100657.98;105138;1255;63700;-60
2023/01/16 05:37:02;;;;;;;60.80;20.80;;;;;;;-2.21;100.00;100654.90;105084;1260;61770;-60
2023/01/16 05:39:29;;;;;;;43.00;16.80;;;;;;;-2.23;100.00;100655.52;105244;1258;76423;-61
2023/01/16 05:41:56;;;;;;;60.60;18.80;;;;;;;-2.24;100.00;100656.92;105340;1255;68482;-62
2023/01/16 05:44:24;;;;;;;52.20;16.50;;;;;;;-2.22;100.00;100661.58;105316;1260;75234;-60
2023/01/16 05:46:51;;;;;;;56.20;15.10;;;;;;;-2.19;100.00;100662.64;105234;1259;60747;-60
2023/01/16 05:49:18;;;;;;;59.90;16.80;;;;;;;-2.17;100.00;100664.07;105301;1259;61925;-60
2023/01/16 05:51:45;;;;;;;55.10;16.40;;;;;;;-2.14;100.00;100663.31;105329;1259;76537;-60
2023/01/16 05:54:12;;;;;;;47.30;14.90;;;;;;;-2.12;100.00;100666.13;105152;1260;68540;-61
2023/01/16 05:56:40;;;;;;;32.80;12.50;;;;;;;-2.12;100.00;100667.14;105272;1260;75230;-60
2023/01/16 05:59:08;;;;;;;43.00;13.10;;;;;;;-2.13;100.00;100668.07;105280;1260;62085;-60
2023/01/16 06:01:35;;;;;;;56.90;15.70;;;;;;;-2.16;100.00;100668.71;105311;1255;61181;-63
2023/01/16 06:04:03;;;;;;;71.30;18.20;;;;;;;-2.16;100.00;100668.59;105295;1258;75764;-61
2023/01/16 06:06:30;;;;;;;58.70;17.60;;;;;;;-2.16;100.00;100669.58;105118;1260;68481;-60
2023/01/16 06:08:57;;;;;;;56.40;16.90;;;;;;;-2.14;100.00;100670.02;105268;1260;72911;-60
2023/01/16 06:11:24;;;;;;;48.00;14.90;;;;;;;-2.12;100.00;100674.11;105679;1257;60973;-63
2023/01/16 06:13:51;;;;;;;48.90;16.20;;;;;;;-2.10;100.00;100675.55;105067;1260;62190;-61
2023/01/16 06:16:19;;;;;;;59.10;18.00;;;;;;;-2.09;100.00;100674.44;105168;1259;76012;-62
2023/01/16 06:18:46;;;;;;;62.80;17.40;;;;;;;-2.09;100.00;100674.42;105081;1254;69256;-61
2023/01/16 06:21:13;;;;;;;59.90;18.50;;;;;;;-2.05;100.00;100678.79;105315;1254;74994;-61
2023/01/16 06:23:40;;;;;;;45.20;14.60;;;;;;;-2.01;100.00;100679.94;105547;1255;61760;-62
2023/01/16 06:26:09;;;;;;;47.20;17.30;;;;;;;-1.97;100.00;100680.89;104905;1259;62824;-60
2023/01/16 06:28:37;;;;;;;49.40;17.70;;;;;;;-1.95;100.00;100677.84;105371;1259;76465;-60
2023/01/16 06:31:05;;;;;;;61.90;19.80;;;;;;;-1.94;100.00;100680.33;105301;1254;69602;-61
2023/01/16 06:33:33;;;;;;;65.20;19.50;;;;;;;-1.91;100.00;100678.45;105964;1260;74992;-63
2023/01/16 06:36:00;;;;;;;58.90;19.20;;;;;;;-1.88;100.00;100679.83;105040;1255;60578;-61
2023/01/16 06:38:27;;;;;;;48.30;18.40;;;;;;;-1.83;100.00;100683.60;105214;1260;61414;-60
2023/01/16 06:40:55;;;;;;;59.80;18.80;;;;;;;-1.78;100.00;100682.27;105168;1254;75013;-60
2023/01/16 06:43:24;;;;;;;51.10;18.70;;;;;;;-1.73;100.00;100683.02;105252;1254;69549;-63
2023/01/16 06:45:51;;;;;;;50.40;17.10;;;;;;;-1.68;100.00;100688.14;105257;1257;75370;-60
2023/01/16 06:48:19;;;;;;;50.60;16.60;;;;;;;-1.62;100.00;100687.81;105085;1257;63956;-62
2023/01/16 06:50:46;;;;;;;54.10;16.80;;;;;;;-1.61;100.00;100684.98;105184;1260;61572;-60
2023/01/16 06:53:13;;;;;;;49.90;15.00;;;;;;;-1.60;100.00;100685.29;104894;1261;76347;-60
2023/01/16 06:55:41;;;;;;;52.70;16.40;;;;;;;-1.61;100.00;100685.14;105404;1257;69475;-62
2023/01/16 06:58:08;;;;;;;42.10;13.70;;;;;;;-1.59;100.00;100690.16;105450;1268;75300;-63
2023/01/16 07:00:36;;;;;;;51.10;14.80;;;;;;;-1.58;100.00;100685.82;104900;1254;62334;-61
2023/01/16 07:03:03;;;;;;;50.30;17.10;;;;;;;-1.57;100.00;100686.61;105322;1255;62497;-60
2023/01/16 07:05:31;;;;;;;61.20;17.00;;;;;;;-1.56;100.00;100685.68;105465;1259;75948;-60
2023/01/16 07:07:58;;;;;;;57.10;18.00;;;;;;;-1.53;100.00;100681.23;105877;1254;68592;-62
2023/01/16 07:10:25;;;;;;;51.60;16.80;;;;;;;-1.48;100.00;100682.83;105083;1254;75207;-63
2023/01/16 07:12:52;;;;;;;55.20;18.00;;;;;;;-1.43;100.00;100681.17;105281;1260;60894;-61
2023/01/16 07:23:52;;;;;;;47.50;16.10;;;;;;;-1.28;100.00;100679.99;104936;1257;76043;-64
2023/01/16 07:26:19;;;;;;;51.50;15.70;;;;;;;-1.25;100.00;100680.52;105087;1258;62342;-60
2023/01/16 07:28:47;;;;;;;53.20;17.10;;;;;;;-1.21;100.00;100678.73;105328;1260;62378;-62
2023/01/16 07:31:14;;;;;;;47.20;16.40;;;;;;;-1.15;100.00;100677.39;105156;1264;76192;-61
2023/01/16 07:33:41;;;;;;;51.40;16.00;;;;;;;-1.10;100.00;100679.23;105143;1254;69789;-61
2023/01/16 07:36:09;;;;;;;35.50;13.20;;;;;;;-1.03;100.00;100683.05;104916;1260;75240;-61
2023/01/16 07:38:36;;;;;;;46.80;17.00;;;;;;;-0.98;100.00;100683.93;105238;1261;61846;-60
2023/01/16 07:41:03;;;;;;;40.70;15.60;;;;;;;-0.94;100.00;100685.73;105583;1257;61462;-61
2023/01/16 07:43:30;;;;;;;43.10;15.50;;;;;;;-0.88;100.00;100686.67;105195;1260;76153;-65
2023/01/16 07:45:57;;;;;;;40.50;14.50;;;;;;;-0.81;100.00;100685.23;105270;1259;67159;-60
2023/01/16 07:48:25;;;;;;;36.90;12.90;;;;;;;-0.74;100.00;100679.84;105319;1260;75286;-61
2023/01/16 07:50:53;;;;;;;43.00;15.40;;;;;;;-0.69;100.00;100681.73;105119;1260;62093;-60
2023/01/16 07:53:22;;;;;;;45.80;14.40;;;;;;;-0.64;100.00;100683.45;105316;1254;61505;-64
2023/01/16 07:55:51;;;;;;;40.20;15.70;;;;;;;-0.59;100.00;100682.75;105195;1259;75271;-60
2023/01/16 07:58:19;;;;;;;43.90;15.10;;;;;;;-0.53;100.00;100685.27;105072;1254;69646;-60
2023/01/16 08:00:46;;;;;;;36.80;14.50;;;;;;;-0.46;100.00;100691.81;105137;1254;75377;-60
2023/01/16 08:03:14;;;;;;;37.20;14.90;;;;;;;-0.38;100.00;100690.78;105409;1258;61415;-60
2023/01/16 08:05:43;;;;;;;42.70;13.90;;;;;;;-0.31;100.00;100689.77;105378;1262;62221;-65
2023/01/16 08:08:10;;;;;;;46.70;15.90;;;;;;;-0.26;100.00;100688.90;105214;1260;76392;-60
2023/01/16 08:10:37;;;;;;;40.80;15.60;;;;;;;-0.20;100.00;100682.41;105027;1260;68485;-61
2023/01/16 08:13:05;;;;;;;37.20;15.70;;;;;;;-0.12;100.00;100683.23;105008;1254;75127;-62
2023/01/16 08:15:32;;;;;;;35.60;14.60;;;;;;;0.00;100.00;100688.71;105520;1259;61078;-65
2023/01/16 08:17:59;;;;;;;31.50;14.50;;;;;;;0.06;100.00;100683.38;104918;1255;62928;-61
2023/01/16 08:20:26;;;;;;;35.70;13.80;;;;;;;0.06;100.00;100689.69;105367;1260;75954;-61
2023/01/16 08:22:55;;;;;;;37.20;14.70;;;;;;;-0.02;100.00;100687.32;105487;1254;69589;-61
2023/01/16 08:25:23;;;;;;;46.60;16.00;;;;;;;-0.12;100.00;100689.00;105174;1260;74088;-61
2023/01/16 08:27:50;;;;;;;34.80;14.10;;;;;;;-0.23;100.00;100692.13;105299;1260;60846;-66
2023/01/16 08:30:18;;;;;;;31.40;14.10;;;;;;;-0.36;100.00;100694.35;105085;1260;62672;-62
2023/01/16 08:32:46;;;;;;;33.70;14.60;;;;;;;-0.47;100.00;100691.71;105317;1256;76318;-62
2023/01/16 08:35:13;;;;;;;42.80;15.60;;;;;;;-0.55;100.00;100687.98;105072;1260;67704;-62
2023/01/16 08:37:48;;;;;;;38.40;15.40;;;;;;;-0.61;100.00;100685.98;105226;1258;74099;-61
2023/01/16 08:40:16;;;;;;;37.40;15.90;;;;;;;-0.66;100.00;100677.44;105030;1254;60951;-61
2023/01/16 08:51:22;;;;;;;34.10;14.50;;;;;;;-0.68;100.00;100665.27;105271;1260;75178;-62
2023/01/16 08:53:50;;;;;;;35.40;14.60;;;;;;;-0.65;100.00;100667.65;105218;1263;60920;-60
2023/01/16 08:56:18;;;;;;;35.30;15.10;;;;;;;-0.62;100.00;100664.37;105407;1262;61743;-60
2023/01/16 08:58:46;;;;;;;33.80;14.70;;;;;;;-0.63;100.00;100661.39;105707;1254;75649;-64
2023/01/16 09:01:13;;;;;;;33.30;14.60;;;;;;;-0.62;100.00;100661.13;105273;1259;67936;-61
2023/01/16 09:03:40;;;;;;;35.90;15.30;;;;;;;-0.60;100.00;100660.29;105558;1260;74160;-60
2023/01/16 09:06:07;;;;;;;42.50;17.00;;;;;;;-0.58;100.00;100657.59;105538;1254;61889;-62
2023/01/16 09:08:34;;;;;;;33.50;13.80;;;;;;;-0.55;100.00;100648.67;105424;1254;62525;-61
2023/01/16 09:13:50;;;;;;;34.00;15.50;;;;;;;-0.44;100.00;100649.34;105469;1254;69616;-64
2023/01/16 09:16:22;;;;;;;46.20;17.10;;;;;;;-0.39;100.00;100649.88;105742;1260;74152;-63
2023/01/16 09:18:49;;;;;;;43.40;17.50;;;;;;;-0.37;100.00;100647.20;105781;1254;62067;-65
2023/01/16 09:21:18;;;;;;;39.90;17.10;;;;;;;-0.33;100.00;100646.52;105508;1259;62315;-61
2023/01/16 09:23:46;;;;;;;37.00;16.20;;;;;;;-0.28;100.00;100643.95;105534;1254;76167;-62
2023/01/16 09:26:13;;;;;;;40.20;18.00;;;;;;;-0.24;100.00;100649.54;105409;1254;69630;-61
2023/01/16 09:28:40;;;;;;;37.70;16.10;;;;;;;-0.20;100.00;100646.55;105303;1259;75187;-66
2023/01/16 09:31:07;;;;;;;38.20;15.60;;;;;;;-0.15;100.00;100644.00;105272;1259;60758;-62
2023/01/16 09:33:36;;;;;;;30.20;14.80;;;;;;;-0.12;100.00;100641.20;105546;1256;62053;-60
2023/01/16 09:36:04;;;;;;;36.30;15.30;;;;;;;-0.11;100.00;100641.13;105568;1254;75115;-60
2023/01/16 09:38:31;;;;;;;43.70;17.10;;;;;;;-0.10;100.00;100640.92;105726;1259;68427;-60
2023/01/16 09:40:58;;;;;;;36.30;15.10;;;;;;;-0.11;100.00;100640.64;105651;1260;74948;-62
2023/01/16 09:43:35;;;;;;;41.20;17.30;;;;;;;-0.11;100.00;100642.13;105529;1261;61194;-60
2023/01/16 09:46:20;;;;;;;45.50;19.50;;;;;;;-0.10;100.00;100645.33;105447;1259;62863;-60
2023/01/16 09:48:55;;;;;;;40.20;18.00;;;;;;;-0.09;100.00;100639.65;105157;1262;75864;-65
2023/01/16 09:51:34;;;;;;;34.60;17.80;;;;;;;-0.10;100.00;100642.04;105523;1259;68803;-61
2023/01/16 09:59:45;;;;;;;45.50;17.00;;;;;;;-0.10;100.00;100637.68;105278;1257;61918;-63
2023/01/16 10:02:15;;;;;;;;;;;;;;;-0.09;100.00;100635.71;105486;1259;76392;-63
2023/01/16 10:04:43;;;;;;;36.70;16.00;;;;;;;-0.06;100.00;100636.20;105383;1259;69562;-61
2023/01/16 10:07:43;;;;;;;36.20;17.10;;;;;;;-0.06;100.00;100631.41;105590;1254;75139;-62
2023/01/16 10:10:18;;;;;;;39.00;16.60;;;;;;;-0.06;100.00;100628.80;105211;1259;63667;-61
2023/01/16 10:13:11;;;;;;;40.00;17.40;;;;;;;-0.06;100.00;100628.80;105312;1254;61340;-64
2023/01/16 10:16:14;;;;;;;32.50;16.20;;;;;;;-0.06;100.00;100622.97;105139;1260;74901;-61
2023/01/16 10:18:54;;;;;;;36.90;18.00;;;;;;;-0.03;100.00;100621.27;105433;1256;360205;-67
2023/01/16 10:21:30;;;;;;;46.20;17.30;;;;;;;-0.02;100.00;100625.11;105474;1261;74142;-60
2023/01/16 10:24:10;;;;;;;42.40;17.60;;;;;;;0.01;100.00;100617.61;105264;1260;63693;-61
2023/01/16 10:26:53;;;;;;;35.40;16.20;;;;;;;0.03;100.00;100616.45;105543;1254;63090;-61
2023/01/16 10:29:30;;;;;;;41.60;18.60;;;;;;;0.02;100.00;100617.31;105505;1254;75103;-62
2023/01/16 10:32:17;;;;;;;39.50;17.10;;;;;;;0.03;100.00;100614.20;105490;1259;69590;-61
2023/01/16 10:35:20;;;;;;;49.70;18.60;;;;;;;0.01;100.00;100617.80;105204;1254;74982;-61
2023/01/16 10:37:49;;;;;;;41.30;17.20;;;;;;;-0.03;100.00;100623.33;105264;1256;62040;-60
2023/01/16 10:40:18;;;;;;;32.90;15.90;;;;;;;-0.03;100.00;100617.31;105390;1261;62826;-61
2023/01/16 10:51:08;;;;;;;35.00;17.40;;;;;;;-0.04;100.00;100620.48;105039;1254;64461;-62
2023/01/16 10:53:35;;;;;;;53.60;20.10;;;;;;;-0.01;100.00;100619.92;105009;1254;62553;-61
2023/01/16 10:56:02;;;;;;;49.50;20.90;;;;;;;0.00;100.00;100612.35;105476;1256;75306;-61
2023/01/16 10:58:31;;;;;;;53.60;24.70;;;;;;;0.02;100.00;100611.56;105418;1254;69549;-62
2023/01/16 11:01:19;;;;;;;44.20;19.10;;;;;;;0.03;100.00;100611.61;105346;1255;75269;-65
2023/01/16 11:03:52;;;;;;;39.60;19.70;;;;;;;0.05;100.00;100616.48;105442;1256;61058;-60
2023/01/16 11:06:20;;;;;;;39.20;17.60;;;;;;;0.04;100.00;100614.83;105118;1262;61838;-61
2023/01/16 11:08:49;;;;;;;32.60;16.40;;;;;;;0.02;100.00;100609.70;105164;1257;75997;-67
2023/01/16 11:20:11;;;;;;;37.50;18.00;;;;;;;-0.03;100.00;100609.82;105481;1255;63026;-64
2023/01/16 11:22:39;;;;;;;33.10;17.30;;;;;;;-0.06;100.00;100609.37;105238;1256;76614;-60
2023/01/16 11:25:07;;;;;;;44.40;19.80;;;;;;;-0.08;100.00;100609.31;105119;1254;68483;-60
2023/01/16 11:27:36;;;;;;;41.00;20.50;;;;;;;-0.10;100.00;100616.81;105027;1259;73859;-65
2023/01/16 11:30:10;;;;;;;53.90;26.50;;;;;;;-0.10;100.00;100617.48;105136;1262;60715;-59
2023/01/16 11:32:47;;;;;;;50.20;26.40;;;;;;;-0.07;100.00;100612.69;105128;1255;62851;-60
2023/01/16 11:35:16;;;;;;;39.00;18.60;;;;;;;-0.06;100.00;100611.93;104955;1254;76045;-62
2023/01/16 11:37:44;;;;;;;41.30;20.20;;;;;;;-0.05;100.00;100607.71;105011;1262;68930;-59
2023/01/16 11:40:17;;;;;;;44.40;21.20;;;;;;;-0.04;100.00;100609.70;105218;1260;74359;-61
2023/01/16 11:48:39;;;;;;;52.50;24.50;;;;;;;-0.05;100.00;100620.33;105106;1256;76491;-61
2023/01/16 11:51:09;;;;;;;60.20;29.30;;;;;;;-0.06;100.00;100618.92;105374;1254;69204;-64
2023/01/16 11:53:37;;;;;;;49.70;25.80;;;;;;;-0.09;100.00;100623.89;105266;1254;74832;-61
2023/01/16 11:56:41;;;;;;;45.40;22.90;;;;;;;-0.10;100.00;100632.37;108925;1254;60918;-60
2023/01/16 11:59:29;;;;;;;44.80;24.70;;;;;;;-0.10;100.00;100637.69;108883;1254;60694;-60
2023/01/16 12:02:21;;;;;;;51.50;25.40;;;;;;;-0.11;100.00;100633.99;107400;1254;75270;-60
2023/01/16 12:08:21;;;;;;;41.80;21.70;;;;;;;-0.14;100.00;100643.39;105186;1259;73012;-60
2023/01/16 12:10:54;;;;;;;49.30;22.60;;;;;;;-0.17;100.00;100643.76;105475;1257;61748;-60
2023/01/16 12:16:16;;;;;;;51.00;24.70;;;;;;;-0.19;100.00;100639.47;105667;1256;76388;-60